Time;durP1;ratioP1;P1;durP2;ratioP2;P2;SDS_P1;SDS_P2;PMS_P1;PMS_P2;Temp;Humidity;BMP_temperature;BMP_pressure;BME280_temperature;BME280_humidity;BME280_pressure;Samples;Min_cycle;Max_cycle;Signal;HPM_P1;HPM_P2
2022/12/05 00:02:16;;;;;;;;;;;;;;;-144.99;100.00;52562.25;4977113;28;19996;-73
2022/12/05 00:04:42;;;;;;;;;;;;;;;-144.99;100.00;52615.25;4986053;28;19964;-72
2022/12/05 00:07:09;;;;;;;;;;;;;;;-144.99;100.00;52586.69;4980202;28;19929;-73
2022/12/05 00:09:35;;;;;;;;;;;;;;;-144.99;100.00;52582.63;4978253;28;19948;-72
2022/12/05 00:12:02;;;;;;;;;;;;;;;-144.99;100.00;52578.53;4989108;28;20632;-73
2022/12/05 00:14:28;;;;;;;;;;;;;;;-144.99;100.00;52590.78;4987783;28;19987;-74
2022/12/05 00:16:55;;;;;;;;;;;;;;;-144.99;100.00;52619.31;4986895;28;20046;-74
2022/12/05 00:19:23;;;;;;;;;;;;;;;-144.99;100.00;52594.84;4983174;28;19955;-73
2022/12/05 00:21:49;;;;;;;;;;;;;;;-144.99;100.00;52617.28;4978490;28;19968;-73
2022/12/05 00:24:16;;;;;;;;;;;;;;;-144.99;100.00;52558.16;4989551;28;19999;-72
2022/12/05 00:26:42;;;;;;;;;;;;;;;-144.99;100.00;52603.00;4986490;28;19964;-74
2022/12/05 00:29:09;;;;;;;;;;;;;;;-144.99;100.00;52603.00;4982521;28;19948;-75
2022/12/05 00:31:36;;;;;;;;;;;;;;;-144.99;100.00;52598.94;4988058;28;20378;-73
2022/12/05 00:34:03;;;;;;;;;;;;;;;-144.99;100.00;52572.44;4990412;28;19979;-73
2022/12/05 00:36:32;;;;;;;;;;;;;;;-144.99;100.00;52562.25;4982444;28;19958;-74
2022/12/05 00:38:59;;;;;;;;;;;;;;;-144.99;100.00;52611.16;4976246;28;19930;-74
2022/12/05 00:41:27;;;;;;;;;;;;;;;-144.99;100.00;52607.09;4980761;28;20005;-74
2022/12/05 00:43:53;;;;;;;;;;;;;;;-144.99;100.00;52578.53;4987693;28;19952;-73
2022/12/05 00:46:21;;;;;;;;;;;;;;;-144.99;100.00;52639.69;4980688;28;19966;-73
2022/12/05 00:48:48;;;;;;;;;;;;;;;-144.99;100.00;52600.97;4978952;28;19948;-73
2022/12/05 00:51:15;;;;;;;;;;;;;;;-144.99;100.00;52607.09;4986355;28;19943;-74
2022/12/05 00:53:43;;;;;;;;;;;;;;;-144.99;100.00;52594.84;4986331;28;19951;-72
2022/12/05 00:56:10;;;;;;;;;;;;;;;-144.99;100.00;52598.94;4983392;28;20085;-72
2022/12/05 00:58:39;;;;;;;;;;;;;;;-144.99;100.00;52603.00;4983053;28;19988;-73
2022/12/05 01:01:06;;;;;;;;;;;;;;;-144.99;100.00;52631.53;4979092;28;19944;-72
2022/12/05 01:03:33;;;;;;;;;;;;;;;-144.99;100.00;52590.78;4988178;28;19936;-71
2022/12/05 01:05:59;;;;;;;;;;;;;;;-144.99;100.00;52607.09;4977962;28;20284;-71
2022/12/05 01:08:26;;;;;;;;;;;;;;;-144.99;100.00;52590.78;4971250;28;19995;-71
2022/12/05 01:10:55;;;;;;;;;;;;;;;-144.99;100.00;52594.84;4986039;28;19964;-71
2022/12/05 01:13:21;;;;;;;;;;;;;;;-144.99;100.00;52566.31;4985605;28;19952;-70
2022/12/05 01:15:48;;;;;;;;;;;;;;;-144.99;100.00;52582.63;4978802;28;20436;-72
2022/12/05 01:18:17;;;;;;;;;;;;;;;-144.99;100.00;52570.38;4985728;28;19976;-71
2022/12/05 01:20:43;;;;;;;;;;;;;;;-144.99;100.00;52623.38;4991649;28;19941;-72
2022/12/05 01:23:10;;;;;;;;;;;;;;;-144.99;100.00;52574.47;4998727;28;19940;-72
2022/12/05 01:25:39;;;;;;;;;;;;;;;-144.99;100.00;52611.16;4994768;28;20336;-71
2022/12/05 01:28:07;;;;;;;;;;;;;;;-144.99;100.00;52574.47;4995083;28;19987;-72
2022/12/05 01:30:36;;;;;;;;;;;;;;;-144.99;100.00;52582.63;4993874;28;20024;-74
2022/12/05 01:33:03;;;;;;;;;;;;;;;-144.99;100.00;52584.66;4997064;28;19971;-73
2022/12/05 01:35:31;;;;;;;;;;;;;;;-144.99;100.00;52580.59;4998410;28;20108;-73
2022/12/05 01:37:57;;;;;;;;;;;;;;;-144.99;100.00;52619.31;4996713;28;19948;-73
2022/12/05 01:40:24;;;;;;;;;;;;;;;-144.99;100.00;52598.94;4994414;28;20491;-73
2022/12/05 01:42:50;;;;;;;;;;;;;;;-144.99;100.00;52562.25;4988621;28;19969;-73
2022/12/05 01:45:22;;;;;;;;;;;;;;;-144.99;100.00;52568.34;4989626;28;20291;-72
2022/12/05 01:47:49;;;;;;;;;;;;;;;-144.99;100.00;52598.94;4988707;28;19971;-74
2022/12/05 01:50:15;;;;;;;;;;;;;;;-144.99;100.00;52603.00;4989044;28;19993;-74
2022/12/05 01:52:42;;;;;;;;;;;;;;;-144.99;100.00;52592.81;4645598;28;10000273;-73
2022/12/05 01:55:12;;;;;;;;;;;;;;;-144.99;100.00;52547.97;4988815;28;19979;-74
2022/12/05 01:57:39;;;;;;;;;;;;;;;-144.99;100.00;52582.63;4986518;28;20002;-72
2022/12/05 02:00:09;;;;;;;;;;;;;;;-144.99;100.00;52578.53;4983704;28;20021;-74
2022/12/05 02:02:38;;;;;;;;;;;;;;;-144.99;100.00;52570.38;4989134;28;19966;-73
2022/12/05 02:05:06;;;;;;;;;;;;;;;-144.99;100.00;52615.25;4989936;28;19960;-72
2022/12/05 02:07:33;;;;;;;;;;;;;;;-144.99;100.00;52611.16;4989664;28;19976;-73
2022/12/05 02:10:00;;;;;;;;;;;;;;;-144.99;100.00;52554.09;4987606;28;19964;-74
2022/12/05 02:12:26;;;;;;;;;;;;;;;-144.99;100.00;52562.25;4988872;28;19950;-74
2022/12/05 02:14:59;;;;;;;;;;;;;;;-144.99;100.00;52574.47;4990431;28;19960;-73
2022/12/05 02:17:31;;;;;;;;;;;;;;;-144.99;100.00;52582.63;4989976;28;19938;-74
2022/12/05 02:22:42;;;;;;;;;;;;;;;-144.99;100.00;52558.16;4995201;28;19962;-73
2022/12/05 02:25:17;;;;;;;;;;;;;;;-144.99;100.00;52574.47;5002344;28;20034;-74
2022/12/05 02:27:58;;;;;;;;;;;;;;;-144.99;100.00;52578.53;4999139;28;19960;-75
2022/12/05 02:30:26;;;;;;;;;;;;;;;-144.99;100.00;52558.16;5007713;28;20011;-77
2022/12/05 02:33:02;;;;;;;;;;;;;;;-144.99;100.00;52545.94;5003056;28;19926;-73
2022/12/05 02:35:34;;;;;;;;;;;;;;;-144.99;100.00;52627.47;5003956;28;19995;-74
2022/12/05 02:38:07;;;;;;;;;;;;;;;-144.99;100.00;52582.63;5007891;28;20330;-73
2022/12/05 02:40:39;;;;;;;;;;;;;;;-144.99;100.00;52572.44;5013144;28;19926;-76
2022/12/05 02:43:08;;;;;;;;;;;;;;;-144.99;100.00;52547.97;5018711;28;19977;-74
2022/12/05 02:45:37;;;;;;;;;;;;;;;-144.99;100.00;52558.16;5008539;28;19925;-73
2022/12/05 02:48:05;;;;;;;;;;;;;;;-144.99;100.00;52611.16;5008013;28;20017;-73
2022/12/05 02:50:33;;;;;;;;;;;;;;;-144.99;100.00;52545.94;5006313;28;20420;-72
2022/12/05 02:53:03;;;;;;;;;;;;;;;-144.99;100.00;52574.47;5007617;28;20042;-75
2022/12/05 02:55:30;;;;;;;;;;;;;;;-144.99;100.00;52552.03;5007558;28;20042;-73
2022/12/05 02:57:59;;;;;;;;;;;;;;;-144.99;100.00;52572.44;5008538;28;19973;-72
2022/12/05 03:00:28;;;;;;;;;;;;;;;-144.99;100.00;52582.63;5006557;28;19956;-75
2022/12/05 03:02:58;;;;;;;;;;;;;;;-144.99;100.00;52545.94;5008793;28;19998;-74
2022/12/05 03:05:32;;;;;;;;;;;;;;;-144.99;100.00;52570.38;5008676;28;20092;-73
2022/12/05 03:08:02;;;;;;;;;;;;;;;-144.99;100.00;52558.16;5008660;28;19961;-73
2022/12/05 03:10:30;;;;;;;;;;;;;;;-144.99;100.00;52545.94;5001266;28;19956;-74
2022/12/05 03:13:00;;;;;;;;;;;;;;;-144.99;100.00;52564.28;5008616;28;20449;-73
2022/12/05 03:15:28;;;;;;;;;;;;;;;-144.99;100.00;52578.53;5005196;28;19942;-73
2022/12/05 03:17:59;;;;;;;;;;;;;;;-144.99;100.00;52566.31;5008721;28;19960;-74
2022/12/05 03:20:27;;;;;;;;;;;;;;;-144.99;100.00;52598.94;5008408;28;19929;-73
2022/12/05 03:22:56;;;;;;;;;;;;;;;-144.99;100.00;52570.38;5008264;28;19980;-73
2022/12/05 03:25:25;;;;;;;;;;;;;;;-144.99;100.00;52578.53;5008730;28;19950;-70
2022/12/05 03:27:53;;;;;;;;;;;;;;;-144.99;100.00;52554.09;5009725;28;20005;-73
2022/12/05 03:30:20;;;;;;;;;;;;;;;-144.99;100.00;52558.16;5013038;28;19960;-73
2022/12/05 03:32:51;;;;;;;;;;;;;;;-144.99;100.00;52566.31;5012285;28;19959;-74
2022/12/05 03:35:22;;;;;;;;;;;;;;;-144.99;100.00;52566.31;5012986;28;20009;-72
2022/12/05 03:37:52;;;;;;;;;;;;;;;-144.99;100.00;52547.97;5012315;28;19991;-73
2022/12/05 03:40:25;;;;;;;;;;;;;;;-144.99;100.00;52566.31;5012993;28;20015;-75
2022/12/05 03:42:55;;;;;;;;;;;;;;;-144.99;100.00;52584.66;5012014;28;20008;-74
2022/12/05 03:45:27;;;;;;;;;;;;;;;-144.99;100.00;52570.38;5012316;28;20056;-73
2022/12/05 03:47:56;;;;;;;;;;;;;;;-144.99;100.00;52590.78;5012106;28;19958;-75
2022/12/05 03:50:26;;;;;;;;;;;;;;;-144.99;100.00;52586.69;5012377;28;20032;-73
2022/12/05 03:52:54;;;;;;;;;;;;;;;-144.99;100.00;52582.63;5012040;28;20363;-73
2022/12/05 03:55:23;;;;;;;;;;;;;;;-144.99;100.00;52611.16;5012061;28;19947;-76
2022/12/05 03:57:52;;;;;;;;;;;;;;;-144.99;100.00;52615.25;5011596;28;20351;-74
2022/12/05 04:00:20;;;;;;;;;;;;;;;-144.99;100.00;52611.16;5011749;28;20449;-74
2022/12/05 04:02:49;;;;;;;;;;;;;;;-144.99;100.00;52574.47;5012035;28;19946;-72
2022/12/05 04:05:19;;;;;;;;;;;;;;;-144.99;100.00;52566.31;5028554;28;19986;-76
2022/12/05 04:07:48;;;;;;;;;;;;;;;-144.99;100.00;52586.69;5018331;28;20066;-76
2022/12/05 04:10:16;;;;;;;;;;;;;;;-144.99;100.00;52590.78;5011885;28;19985;-73
2022/12/05 04:12:45;;;;;;;;;;;;;;;-144.99;100.00;52566.31;5011027;28;19988;-71
2022/12/05 04:15:15;;;;;;;;;;;;;;;-144.99;100.00;52607.09;5015815;28;19994;-73
2022/12/05 04:17:45;;;;;;;;;;;;;;;-144.99;100.00;52554.09;5011738;28;20297;-73
2022/12/05 04:23:00;;;;;;;;;;;;;;;-144.99;100.00;52562.25;5010502;28;20006;-77
2022/12/05 04:25:32;;;;;;;;;;;;;;;-144.99;100.00;52558.16;5011879;28;20468;-74
2022/12/05 04:28:03;;;;;;;;;;;;;;;-144.99;100.00;52570.38;5010100;28;19933;-74
2022/12/05 04:30:35;;;;;;;;;;;;;;;-144.99;100.00;52566.31;5011600;28;19961;-74
2022/12/05 04:33:05;;;;;;;;;;;;;;;-144.99;100.00;52554.09;5007782;28;20398;-73
2022/12/05 04:35:34;;;;;;;;;;;;;;;-144.99;100.00;52594.84;5011119;28;19929;-73
2022/12/05 04:38:04;;;;;;;;;;;;;;;-144.99;100.00;52596.88;5011501;28;19942;-73
2022/12/05 04:40:33;;;;;;;;;;;;;;;-144.99;100.00;52558.16;5006413;28;19987;-73
2022/12/05 04:43:02;;;;;;;;;;;;;;;-144.99;100.00;52578.53;5003649;28;19983;-75
2022/12/05 04:45:30;;;;;;;;;;;;;;;-144.99;100.00;52541.84;5015986;28;19991;-74
2022/12/05 04:47:59;;;;;;;;;;;;;;;-144.99;100.00;52574.47;5026818;28;19958;-74
2022/12/05 04:50:30;;;;;;;;;;;;;;;-144.99;100.00;52570.38;5010511;28;19964;-75
2022/12/05 04:52:57;;;;;;;;;;;;;;;-144.99;100.00;52550.00;5009925;28;19990;-75
2022/12/05 04:55:26;;;;;;;;;;;;;;;-144.99;100.00;52562.25;5009648;28;20423;-77
2022/12/05 04:57:56;;;;;;;;;;;;;;;-144.99;100.00;52566.31;5011146;28;20019;-76
2022/12/05 05:00:22;;;;;;;;;;;;;;;-144.99;100.00;52603.00;5010488;28;20432;-74
2022/12/05 05:02:51;;;;;;;;;;;;;;;-144.99;100.00;52541.84;5009966;28;20227;-77
2022/12/05 05:05:19;;;;;;;;;;;;;;;-144.99;100.00;52566.31;5010404;28;19994;-74
2022/12/05 05:07:47;;;;;;;;;;;;;;;-144.99;100.00;52556.13;5009657;28;19965;-74
2022/12/05 05:10:16;;;;;;;;;;;;;;;-144.99;100.00;52568.34;5009573;28;19970;-75
2022/12/05 05:12:44;;;;;;;;;;;;;;;-144.99;100.00;52552.03;5009546;28;19976;-76
2022/12/05 05:15:10;;;;;;;;;;;;;;;-144.99;100.00;52547.97;5009976;28;20027;-75
2022/12/05 05:17:37;;;;;;;;;;;;;;;-144.99;100.00;52533.69;5009662;28;19953;-73
2022/12/05 05:22:47;;;;;;;;;;;;;;;-144.99;100.00;52611.16;5007724;28;19942;-75
2022/12/05 05:25:14;;;;;;;;;;;;;;;-144.99;100.00;52584.66;5010044;28;20089;-77
2022/12/05 05:27:40;;;;;;;;;;;;;;;-144.99;100.00;52541.84;5020489;28;20527;-78
2022/12/05 05:30:10;;;;;;;;;;;;;;;-144.99;100.00;52578.53;5026536;28;20381;-75
2022/12/05 05:32:37;;;;;;;;;;;;;;;-144.99;100.00;52594.84;5009680;28;19968;-73
2022/12/05 05:35:03;;;;;;;;;;;;;;;-144.99;100.00;52560.19;5009761;28;19944;-76
2022/12/05 05:37:30;;;;;;;;;;;;;;;-144.99;100.00;52578.53;5009412;28;20521;-75
2022/12/05 05:39:56;;;;;;;;;;;;;;;-144.99;100.00;52554.09;5009979;28;19953;-80
2022/12/05 05:42:22;;;;;;;;;;;;;;;-144.99;100.00;52525.56;5009566;28;19963;-77
2022/12/05 05:44:49;;;;;;;;;;;;;;;-144.99;100.00;52574.47;5010862;28;20399;-76
2022/12/05 05:47:17;;;;;;;;;;;;;;;-144.99;100.00;52545.94;5010938;28;19936;-76
2022/12/05 05:49:43;;;;;;;;;;;;;;;-144.99;100.00;52570.38;5010060;28;19956;-75
2022/12/05 05:52:10;;;;;;;;;;;;;;;-144.99;100.00;52590.78;5008052;28;20033;-78
2022/12/05 05:54:36;;;;;;;;;;;;;;;-144.99;100.00;52566.31;5010349;28;20422;-78
2022/12/05 05:57:03;;;;;;;;;;;;;;;-144.99;100.00;52611.16;5011402;28;19943;-80
2022/12/05 05:59:29;;;;;;;;;;;;;;;-144.99;100.00;52584.66;5010466;28;19936;-77
2022/12/05 06:01:56;;;;;;;;;;;;;;;-144.99;100.00;52513.31;5009833;28;19956;-78
2022/12/05 06:04:24;;;;;;;;;;;;;;;-144.99;100.00;52574.47;5015785;28;19933;-81
2022/12/05 06:06:50;;;;;;;;;;;;;;;-144.99;100.00;52570.38;5030342;28;19931;-81
2022/12/05 06:09:17;;;;;;;;;;;;;;;-144.99;100.00;52590.78;4332186;28;10000797;-75
2022/12/05 06:11:43;;;;;;;;;;;;;;;-144.99;100.00;52545.94;5015475;28;19933;-78
2022/12/05 06:14:10;;;;;;;;;;;;;;;-144.99;100.00;52570.38;5016063;28;19940;-77
2022/12/05 06:16:36;;;;;;;;;;;;;;;-144.99;100.00;52586.69;5016928;28;19929;-78
2022/12/05 06:19:03;;;;;;;;;;;;;;;-144.99;100.00;52582.63;5020164;28;20027;-81
2022/12/05 06:21:31;;;;;;;;;;;;;;;-144.99;100.00;52582.63;5019548;28;19973;-77
2022/12/05 06:23:57;;;;;;;;;;;;;;;-144.99;100.00;52586.69;5022219;28;20009;-82
2022/12/05 06:26:24;;;;;;;;;;;;;;;-144.99;100.00;52554.09;5021739;28;20028;-77
2022/12/05 06:28:50;;;;;;;;;;;;;;;-144.99;100.00;52572.44;5021000;28;20005;-79
2022/12/05 06:31:18;;;;;;;;;;;;;;;-144.99;100.00;52594.84;5012437;28;20472;-77
2022/12/05 06:33:47;;;;;;;;;;;;;;;-144.99;100.00;52558.16;5001085;28;20339;-76
2022/12/05 06:36:15;;;;;;;;;;;;;;;-144.99;100.00;52592.81;5005777;28;19960;-78
2022/12/05 06:38:42;;;;;;;;;;;;;;;-144.99;100.00;52590.78;5009231;28;19973;-76
2022/12/05 06:41:14;;;;;;;;;;;;;;;-144.99;100.00;52590.78;5006122;28;20013;-77
2022/12/05 06:43:41;;;;;;;;;;;;;;;-144.99;100.00;52562.25;4998557;28;19929;-76
2022/12/05 06:46:08;;;;;;;;;;;;;;;-144.99;100.00;52562.25;5008531;28;19963;-76
2022/12/05 06:48:35;;;;;;;;;;;;;;;-144.99;100.00;52562.25;5017745;28;20014;-76
2022/12/05 06:51:02;;;;;;;;;;;;;;;-144.99;100.00;52578.53;5004771;28;19926;-77
2022/12/05 06:53:28;;;;;;;;;;;;;;;-144.99;100.00;52529.63;5004508;28;19942;-76
2022/12/05 06:55:57;;;;;;;;;;;;;;;-144.99;100.00;52574.47;5005218;28;20010;-77
2022/12/05 06:58:24;;;;;;;;;;;;;;;-144.99;100.00;52562.25;5004240;28;19961;-76
2022/12/05 07:03:34;;;;;;;;;;;;;;;-144.99;100.00;52586.69;5004501;28;19951;-76
2022/12/05 07:06:00;;;;;;;;;;;;;;;-144.99;100.00;52558.16;5009295;28;20072;-76
2022/12/05 07:08:27;;;;;;;;;;;;;;;-144.99;100.00;52562.25;5006865;28;19965;-77
2022/12/05 07:10:54;;;;;;;;;;;;;;;-144.99;100.00;52578.53;5009067;28;19983;-74
2022/12/05 07:13:21;;;;;;;;;;;;;;;-144.99;100.00;52586.69;5009320;28;19925;-75
2022/12/05 07:15:48;;;;;;;;;;;;;;;-144.99;100.00;52594.84;5005845;28;20041;-77
2022/12/05 07:18:15;;;;;;;;;;;;;;;-144.99;100.00;52566.31;5009981;28;20002;-77
2022/12/05 07:20:42;;;;;;;;;;;;;;;-144.99;100.00;52570.38;5010539;28;20196;-78
2022/12/05 07:23:08;;;;;;;;;;;;;;;-144.99;100.00;52574.47;5024669;28;19945;-74
2022/12/05 07:25:38;;;;;;;;;;;;;;;-144.99;100.00;52562.25;5009476;28;19979;-75
2022/12/05 07:28:05;;;;;;;;;;;;;;;-144.99;100.00;52566.31;5009750;28;20010;-77
2022/12/05 07:30:33;;;;;;;;;;;;;;;-144.99;100.00;52578.53;5009082;28;20059;-77
2022/12/05 07:32:59;;;;;;;;;;;;;;;-144.99;100.00;52562.25;5009389;28;20534;-78
2022/12/05 07:35:26;;;;;;;;;;;;;;;-144.99;100.00;52603.00;5009813;28;20018;-77
2022/12/05 07:37:52;;;;;;;;;;;;;;;-144.99;100.00;52572.44;5008734;28;20008;-76
2022/12/05 07:40:19;;;;;;;;;;;;;;;-144.99;100.00;52552.03;5009865;28;20099;-76
2022/12/05 07:42:47;;;;;;;;;;;;;;;-144.99;100.00;52598.94;5008650;28;20165;-78
2022/12/05 07:45:14;;;;;;;;;;;;;;;-144.99;100.00;52562.25;5009445;28;21516;-78
2022/12/05 07:47:42;;;;;;;;;;;;;;;-144.99;100.00;52545.94;5009331;28;19956;-78
2022/12/05 07:50:08;;;;;;;;;;;;;;;-144.99;100.00;52547.97;5010313;28;19967;-77
2022/12/05 07:52:35;;;;;;;;;;;;;;;-144.99;100.00;52541.84;5011013;28;19967;-76
2022/12/05 07:55:02;;;;;;;;;;;;;;;-144.99;100.00;52566.31;5007782;28;19945;-80
2022/12/05 07:57:29;;;;;;;;;;;;;;;-144.99;100.00;52562.25;5021230;28;20006;-81
2022/12/05 07:59:55;;;;;;;;;;;;;;;-144.99;100.00;52582.63;5010620;28;19973;-77
2022/12/05 08:02:22;;;;;;;;;;;;;;;-144.99;100.00;52598.94;5009847;28;19962;-79
2022/12/05 08:04:50;;;;;;;;;;;;;;;-144.99;100.00;52607.09;5009329;28;20328;-75
2022/12/05 08:07:17;;;;;;;;;;;;;;;-144.99;100.00;52590.78;5009410;28;19943;-81
2022/12/05 08:09:43;;;;;;;;;;;;;;;-144.99;100.00;52586.69;5009040;28;19993;-75
2022/12/05 08:12:09;;;;;;;;;;;;;;;-144.99;100.00;52552.03;5010715;28;20023;-76
2022/12/05 08:14:36;;;;;;;;;;;;;;;-144.99;100.00;52590.78;5010204;28;20007;-76
2022/12/05 08:17:03;;;;;;;;;;;;;;;-144.99;100.00;52590.78;5009772;28;19944;-80
2022/12/05 08:19:30;;;;;;;;;;;;;;;-144.99;100.00;52574.47;5008429;28;19930;-75
2022/12/05 08:21:58;;;;;;;;;;;;;;;-144.99;100.00;52550.00;5007927;28;19966;-74
2022/12/05 08:24:24;;;;;;;;;;;;;;;-144.99;100.00;52594.84;5008392;28;19987;-75
2022/12/05 08:26:51;;;;;;;;;;;;;;;-144.99;100.00;52598.94;5007592;28;19939;-76
2022/12/05 08:29:20;;;;;;;;;;;;;;;-144.99;100.00;52562.25;5008114;28;19999;-78
2022/12/05 08:31:47;;;;;;;;;;;;;;;-144.99;100.00;52568.34;5008437;28;19984;-79
2022/12/05 08:34:14;;;;;;;;;;;;;;;-144.99;100.00;52574.47;5009413;28;19949;-77
2022/12/05 08:36:41;;;;;;;;;;;;;;;-144.99;100.00;52582.63;5007824;28;19998;-78
2022/12/05 08:39:13;;;;;;;;;;;;;;;-144.99;100.00;52594.84;5007731;28;19925;-79
2022/12/05 08:41:40;;;;;;;;;;;;;;;-144.99;100.00;52560.19;5007045;28;20089;-75
2022/12/05 08:44:07;;;;;;;;;;;;;;;-144.99;100.00;52517.41;5000978;28;20037;-76
2022/12/05 08:46:35;;;;;;;;;;;;;;;-144.99;100.00;52607.09;5007734;28;20395;-77
2022/12/05 08:49:01;;;;;;;;;;;;;;;-144.99;100.00;52562.25;5007636;28;19965;-79
2022/12/05 08:51:27;;;;;;;;;;;;;;;-144.99;100.00;52615.25;5007606;28;19955;-77
2022/12/05 08:53:55;;;;;;;;;;;;;;;-144.99;100.00;52574.47;5007641;28;20062;-77
2022/12/05 08:56:23;;;;;;;;;;;;;;;-144.99;100.00;52582.63;5006873;28;20397;-75
2022/12/05 08:58:49;;;;;;;;;;;;;;;-144.99;100.00;52590.78;5009697;28;19949;-77
2022/12/05 09:01:17;;;;;;;;;;;;;;;-144.99;100.00;52586.69;5007079;28;20501;-79
2022/12/05 09:03:44;;;;;;;;;;;;;;;-144.99;100.00;52582.63;5007221;28;20400;-75
2022/12/05 09:06:12;;;;;;;;;;;;;;;-144.99;100.00;52574.47;5007911;28;20029;-82
2022/12/05 09:08:39;;;;;;;;;;;;;;;-144.99;100.00;52603.00;5027715;28;19971;-83
2022/12/05 09:11:06;;;;;;;;;;;;;;;-144.99;100.00;52584.66;5008829;28;20067;-77
2022/12/05 09:13:34;;;;;;;;;;;;;;;-144.99;100.00;52550.00;5008688;28;19956;-77
2022/12/05 09:16:05;;;;;;;;;;;;;;;-144.99;100.00;52564.28;5001120;28;19945;-76
2022/12/05 09:18:32;;;;;;;;;;;;;;;-144.99;100.00;52611.16;5002895;28;20008;-77
2022/12/05 09:20:58;;;;;;;;;;;;;;;-144.99;100.00;52537.78;5008346;28;20057;-77
2022/12/05 09:23:25;;;;;;;;;;;;;;;-144.99;100.00;52605.03;5008866;28;19962;-77
2022/12/05 09:25:54;;;;;;;;;;;;;;;-144.99;100.00;52592.81;5008489;28;20368;-79
2022/12/05 09:28:21;;;;;;;;;;;;;;;-144.99;100.00;52586.69;5008987;28;19941;-75
2022/12/05 09:30:57;;;;;;;;;;;;;;;-144.99;100.00;52582.63;5009110;28;19926;-78
2022/12/05 09:33:24;;;;;;;;;;;;;;;-144.99;100.00;52592.81;5008208;28;20017;-78
2022/12/05 09:35:50;;;;;;;;;;;;;;;-144.99;100.00;52566.31;5007493;28;19976;-76
2022/12/05 09:38:17;;;;;;;;;;;;;;;-144.99;100.00;52594.84;5009344;28;19949;-76
2022/12/05 09:40:43;;;;;;;;;;;;;;;-144.99;100.00;52582.63;5007654;28;19954;-79
2022/12/05 09:43:15;;;;;;;;;;;;;;;-144.99;100.00;52566.31;5006981;28;20432;-78
2022/12/05 09:45:46;;;;;;;;;;;;;;;-144.99;100.00;52611.16;5025467;28;19944;-75
2022/12/05 09:48:15;;;;;;;;;;;;;;;-144.99;100.00;52621.34;5009952;28;20075;-76
2022/12/05 09:50:44;;;;;;;;;;;;;;;-144.99;100.00;52570.38;5006910;28;19975;-76
2022/12/05 09:53:12;;;;;;;;;;;;;;;-144.99;100.00;52558.16;5005799;28;19961;-76
2022/12/05 09:55:42;;;;;;;;;;;;;;;-144.99;100.00;52574.47;5009493;28;19945;-74
2022/12/05 09:58:16;;;;;;;;;;;;;;;-144.99;100.00;52533.69;5008020;28;19994;-77
2022/12/05 10:00:43;;;;;;;;;;;;;;;-144.99;100.00;52586.69;5008564;28;20026;-77
2022/12/05 10:03:12;;;;;;;;;;;;;;;-144.99;100.00;52590.78;5008609;28;20205;-76
2022/12/05 10:05:42;;;;;;;;;;;;;;;-144.99;100.00;52578.53;5009505;28;20294;-78
2022/12/05 10:08:13;;;;;;;;;;;;;;;-144.99;100.00;52598.94;5009456;28;19968;-74
2022/12/05 10:10:45;;;;;;;;;;;;;;;-144.99;100.00;52566.31;5008814;28;20018;-77
2022/12/05 10:13:23;;;;;;;;;;;;;;;-144.99;100.00;52556.13;5008478;28;20969;-79
2022/12/05 10:15:52;;;;;;;;;;;;;;;-144.99;100.00;52598.94;5008278;28;19944;-76
2022/12/05 10:18:26;;;;;;;;;;;;;;;-144.99;100.00;52592.81;5008936;28;19926;-78
2022/12/05 10:20:57;;;;;;;;;;;;;;;-144.99;100.00;52615.25;5018505;28;20006;-80
2022/12/05 10:23:27;;;;;;;;;;;;;;;-144.99;100.00;52623.38;5021987;28;19946;-78
2022/12/05 10:25:57;;;;;;;;;;;;;;;-144.99;100.00;52582.63;5008053;28;19954;-77
2022/12/05 10:28:28;;;;;;;;;;;;;;;-144.99;100.00;52629.50;5007050;28;20051;-77
2022/12/05 10:30:56;;;;;;;;;;;;;;;-144.99;100.00;52580.59;5006253;28;19976;-79
2022/12/05 10:33:24;;;;;;;;;;;;;;;-144.99;100.00;52580.59;5006423;28;20534;-80
2022/12/05 10:35:53;;;;;;;;;;;;;;;-144.99;100.00;52611.16;5007073;28;19991;-77
2022/12/05 10:38:24;;;;;;;;;;;;;;;-144.99;100.00;52598.94;5006821;28;20311;-77
2022/12/05 10:40:52;;;;;;;;;;;;;;;-144.99;100.00;52623.38;5004331;28;20456;-78
2022/12/05 10:43:23;;;;;;;;;;;;;;;-144.99;100.00;52598.94;5000035;28;19989;-79
2022/12/05 10:45:50;;;;;;;;;;;;;;;-144.99;100.00;52566.31;5006946;28;20054;-78
2022/12/05 10:48:18;;;;;;;;;;;;;;;-144.99;100.00;52603.00;5006763;28;19990;-77
2022/12/05 10:50:47;;;;;;;;;;;;;;;-144.99;100.00;52596.88;5005866;28;20029;-77
2022/12/05 10:53:17;;;;;;;;;;;;;;;-144.99;100.00;52594.84;5006975;28;19975;-77
2022/12/05 10:55:46;;;;;;;;;;;;;;;-144.99;100.00;52600.97;4994776;28;19939;-76
2022/12/05 10:58:14;;;;;;;;;;;;;;;-144.99;100.00;52554.09;5006014;28;19955;-79
2022/12/05 11:00:45;;;;;;;;;;;;;;;-144.99;100.00;52586.69;5006899;28;20433;-78
2022/12/05 11:03:22;;;;;;;;;;;;;;;-144.99;100.00;52598.94;5007229;28;19940;-79
2022/12/05 11:05:50;;;;;;;;;;;;;;;-144.99;100.00;52552.03;5006906;28;20223;-76
2022/12/05 11:08:21;;;;;;;;;;;;;;;-144.99;100.00;52584.66;5008244;28;19950;-77
2022/12/05 11:10:49;;;;;;;;;;;;;;;-144.99;100.00;52570.38;5002127;28;20006;-78
2022/12/05 11:13:17;;;;;;;;;;;;;;;-144.99;100.00;52598.94;5006557;28;20381;-78
2022/12/05 11:15:45;;;;;;;;;;;;;;;-144.99;100.00;52625.44;5005040;28;19992;-74
2022/12/05 11:18:18;;;;;;;;;;;;;;;-144.99;100.00;52578.53;5005516;28;19964;-75
2022/12/05 11:20:45;;;;;;;;;;;;;;;-144.99;100.00;52588.75;5005517;28;20030;-75
2022/12/05 11:23:22;;;;;;;;;;;;;;;-144.99;100.00;52607.09;5005240;28;19969;-76
2022/12/05 11:25:50;;;;;;;;;;;;;;;-144.99;100.00;52603.00;5004510;28;20041;-75
2022/12/05 11:28:24;;;;;;;;;;;;;;;-144.99;100.00;52603.00;5003760;28;20377;-76
2022/12/05 11:30:56;;;;;;;;;;;;;;;-144.99;100.00;52564.28;5005503;28;20052;-73
2022/12/05 11:33:23;;;;;;;;;;;;;;;-144.99;100.00;52558.16;5014826;28;19977;-79
2022/12/05 11:35:51;;;;;;;;;;;;;;;-144.99;100.00;52582.63;5009564;28;20331;-76
2022/12/05 11:38:19;;;;;;;;;;;;;;;-144.99;100.00;52590.78;5005270;28;20024;-75
2022/12/05 11:40:50;;;;;;;;;;;;;;;-144.99;100.00;52603.00;5004608;28;20059;-75
2022/12/05 11:43:27;;;;;;;;;;;;;;;-144.99;100.00;52570.38;5004998;28;20431;-77
2022/12/05 11:45:59;;;;;;;;;;;;;;;-144.99;100.00;52617.28;5004024;28;19960;-75
2022/12/05 11:48:31;;;;;;;;;;;;;;;-144.99;100.00;52558.16;5006064;28;20003;-75
2022/12/05 11:51:09;;;;;;;;;;;;;;;-144.99;100.00;52619.31;5004221;28;20381;-76
2022/12/05 11:53:54;;;;;;;;;;;;;;;-144.99;100.00;52592.81;5004249;28;20043;-77
2022/12/05 11:56:26;;;;;;;;;;;;;;;-144.99;100.00;52619.31;5007906;28;20652;-74
2022/12/05 11:59:00;;;;;;;;;;;;;;;-144.99;100.00;52598.94;5009701;28;20392;-77
2022/12/05 12:01:35;;;;;;;;;;;;;;;-144.99;100.00;52578.53;5005120;28;19986;-77
2022/12/05 12:04:20;;;;;;;;;;;;;;;-144.99;100.00;52578.53;5009284;28;19939;-78
2022/12/05 12:06:54;;;;;;;;;;;;;;;-144.99;100.00;52590.78;5004171;28;19988;-76
2022/12/05 12:09:28;;;;;;;;;;;;;;;-144.99;100.00;52639.69;5019269;28;19933;-78
2022/12/05 12:11:59;;;;;;;;;;;;;;;-144.99;100.00;52611.16;5012132;28;19961;-77
2022/12/05 12:14:32;;;;;;;;;;;;;;;-144.99;100.00;52594.84;5008423;28;19988;-76
2022/12/05 12:17:06;;;;;;;;;;;;;;;-144.99;100.00;52596.88;5004564;28;19973;-75
2022/12/05 12:19:43;;;;;;;;;;;;;;;-144.99;100.00;52600.97;5003505;28;20354;-76
2022/12/05 12:22:18;;;;;;;;;;;;;;;-144.99;100.00;52609.13;5007972;28;20700;-76
2022/12/05 12:24:55;;;;;;;;;;;;;;;-144.99;100.00;52598.94;5001311;28;19959;-77
2022/12/05 12:27:28;;;;;;;;;;;;;;;-144.99;100.00;52594.84;5008247;28;19944;-79
2022/12/05 12:30:03;;;;;;;;;;;;;;;-144.99;100.00;52586.69;5003713;28;20007;-78
2022/12/05 12:32:33;;;;;;;;;;;;;;;-144.99;100.00;52507.19;4999513;28;20044;-76
2022/12/05 12:35:05;;;;;;;;;;;;;;;-144.99;100.00;52582.63;5009231;28;20027;-76
2022/12/05 12:37:39;;;;;;;;;;;;;;;-144.99;100.00;52603.00;5008991;28;19978;-77